Time;durP1;ratioP1;P1;durP2;ratioP2;P2;SDS_P1;SDS_P2;PMS_P1;PMS_P2;Temp;Humidity;BMP_temperature;BMP_pressure;BME280_temperature;BME280_humidity;BME280_pressure;Samples;Min_cycle;Max_cycle;Signal;HPM_P1;HPM_P2
2021/10/10 00:01:48;;;;;;;22.58;14.93;;;;;;;15.39;43.26;101808.05;2384655;82;25665;-73
2021/10/10 00:05:09;;;;;;;18.07;14.63;;;;;;;15.37;43.23;101809.34;2382661;82;25650;-72
2021/10/10 00:08:30;;;;;;;22.90;14.80;;;;;;;15.35;43.30;101803.14;2381221;82;31062;-73
2021/10/10 00:11:52;;;;;;;24.95;17.00;;;;;;;15.32;43.27;101802.66;2375935;82;30890;-73
2021/10/10 00:15:14;;;;;;;22.32;15.32;;;;;;;15.29;43.31;101801.26;2390846;81;25525;-75
2021/10/10 00:18:38;;;;;;;21.52;15.13;;;;;;;15.15;43.31;101776.33;2377536;82;25590;-74
2021/10/10 00:21:59;;;;;;;20.68;16.25;;;;;;;15.25;43.35;101807.25;2377579;82;25706;-75
2021/10/10 00:25:19;;;;;;;24.85;16.10;;;;;;;15.22;43.37;101803.26;2378408;82;30992;-75
2021/10/10 00:28:40;;;;;;;24.77;15.55;;;;;;;15.19;43.43;101798.34;2374156;82;25591;-76
2021/10/10 00:32:02;;;;;;;26.82;16.70;;;;;;;15.17;43.43;101800.03;2384775;82;26039;-75
2021/10/10 00:35:23;;;;;;;25.62;17.23;;;;;;;15.13;43.47;101804.73;2381626;82;25735;-76
2021/10/10 00:38:44;;;;;;;25.77;17.42;;;;;;;15.11;43.48;101802.05;2370840;82;30865;-73
2021/10/10 00:42:07;;;;;;;27.42;18.73;;;;;;;15.07;43.50;101801.08;2380817;82;30859;-74
2021/10/10 00:45:28;;;;;;;29.50;18.98;;;;;;;15.04;43.55;101798.36;2386470;82;25658;-73
2021/10/10 00:48:49;;;;;;;30.37;19.25;;;;;;;15.01;43.59;101800.02;2373284;82;30981;-73
2021/10/10 00:52:15;;;;;;;24.57;18.48;;;;;;;14.88;43.67;101787.88;2382602;82;26082;-73
2021/10/10 00:55:36;;;;;;;27.87;19.32;;;;;;;14.95;43.67;101793.27;2390423;82;25610;-73
2021/10/10 00:58:59;;;;;;;33.15;21.10;;;;;;;14.92;43.68;101797.13;2373585;82;30969;-74
2021/10/10 01:02:20;;;;;;;31.23;20.88;;;;;;;14.86;43.73;101798.74;2384217;82;25808;-73
2021/10/10 01:05:41;;;;;;;31.68;20.37;;;;;;;14.84;43.75;101799.54;2382048;82;31408;-73
2021/10/10 01:09:02;;;;;;;32.05;20.15;;;;;;;14.81;43.78;101790.25;2375435;82;25654;-73
2021/10/10 01:12:24;;;;;;;33.02;21.30;;;;;;;14.77;43.83;101789.70;2356335;81;25877;-73
2021/10/10 01:15:50;;;;;;;33.48;21.60;;;;;;;14.73;43.87;101785.22;2331916;83;25657;-74
2021/10/10 01:19:11;;;;;;;34.27;21.82;;;;;;;14.71;43.91;101789.09;2340789;84;25433;-73
2021/10/10 01:22:32;;;;;;;34.88;21.30;;;;;;;14.68;43.98;101782.87;2396271;81;25627;-74
2021/10/10 01:25:54;;;;;;;31.07;20.27;;;;;;;14.65;43.97;101781.07;2404597;81;30794;-74
2021/10/10 01:29:15;;;;;;;35.85;22.15;;;;;;;14.61;44.08;101777.47;2409963;81;25875;-74
2021/10/10 01:32:36;;;;;;;34.45;21.52;;;;;;;14.58;44.11;101781.31;2405990;81;30821;-74
2021/10/10 01:35:56;;;;;;;30.15;20.95;;;;;;;14.56;44.18;101775.11;2399693;81;25621;-74
2021/10/10 01:39:17;;;;;;;34.67;21.80;;;;;;;14.55;44.13;101773.34;2405214;82;30822;-73
2021/10/10 01:42:38;;;;;;;34.58;22.32;;;;;;;14.51;44.18;101774.11;2404974;82;25601;-73
2021/10/10 01:45:59;;;;;;;33.08;19.92;;;;;;;14.49;44.20;101770.50;2413563;80;30878;-73
2021/10/10 01:49:23;;;;;;;34.73;21.73;;;;;;;14.47;44.23;101768.66;2372466;81;25677;-73
2021/10/10 01:52:46;;;;;;;35.38;21.55;;;;;;;14.45;44.28;101765.13;2402954;81;31566;-73
2021/10/10 01:56:08;;;;;;;33.60;21.77;;;;;;;14.42;44.31;101763.29;2406463;81;25649;-74
2021/10/10 01:59:28;;;;;;;39.83;22.45;;;;;;;14.39;44.32;101763.20;2412501;82;25784;-73
2021/10/10 02:02:52;;;;;;;32.78;21.35;;;;;;;14.36;44.36;101765.30;2397073;81;25601;-73
2021/10/10 02:06:13;;;;;;;34.73;21.40;;;;;;;14.34;44.41;101761.76;2404473;81;25662;-73
2021/10/10 02:09:36;;;;;;;33.23;21.40;;;;;;;14.31;44.42;101768.22;2410947;82;25720;-73
2021/10/10 02:13:00;;;;;;;31.42;20.90;;;;;;;14.29;44.44;101764.64;2358384;81;25650;-73
2021/10/10 02:16:21;;;;;;;31.75;21.55;;;;;;;14.27;44.43;101758.45;2294505;83;25281;-73
2021/10/10 02:19:42;;;;;;;37.98;21.37;;;;;;;14.25;44.47;101758.84;2330947;83;30920;-73
2021/10/10 02:23:03;;;;;;;35.05;21.35;;;;;;;14.22;44.50;101754.81;2345307;81;26117;-73
2021/10/10 02:26:24;;;;;;;34.90;21.90;;;;;;;14.20;44.54;101762.16;2306152;83;30879;-73
2021/10/10 02:29:45;;;;;;;29.07;20.53;;;;;;;14.14;44.54;101761.14;2310545;82;25586;-72
2021/10/10 02:33:06;;;;;;;33.83;22.73;;;;;;;14.14;44.61;101761.53;2303087;82;25802;-73
2021/10/10 02:36:26;;;;;;;30.43;19.90;;;;;;;14.10;44.61;101756.62;2305688;82;25702;-73
2021/10/10 02:39:47;;;;;;;31.60;21.17;;;;;;;14.07;44.68;101752.63;2298840;83;25644;-73
2021/10/10 02:43:09;;;;;;;37.47;21.10;;;;;;;14.05;44.66;101754.72;2286970;82;25583;-73
2021/10/10 02:46:32;;;;;;;32.67;21.12;;;;;;;14.04;44.72;101752.91;2312995;84;25641;-74
2021/10/10 02:49:53;;;;;;;29.70;19.77;;;;;;;14.01;44.72;101747.17;2289253;83;25681;-73
2021/10/10 02:53:14;;;;;;;34.40;21.45;;;;;;;13.98;44.80;101748.81;2318366;82;30953;-73
2021/10/10 02:56:36;;;;;;;33.80;20.72;;;;;;;13.97;44.82;101748.32;2313739;83;25649;-73
2021/10/10 02:59:57;;;;;;;31.68;20.57;;;;;;;13.93;44.82;101746.03;2283746;83;25640;-73
2021/10/10 03:03:17;;;;;;;33.83;20.52;;;;;;;13.91;44.85;101743.80;2321070;82;31616;-73
2021/10/10 03:06:39;;;;;;;31.77;21.15;;;;;;;13.88;44.90;101745.00;2291564;83;25363;-73
2021/10/10 03:10:00;;;;;;;28.83;20.25;;;;;;;13.85;44.93;101743.17;2312463;82;25757;-73
2021/10/10 03:13:20;;;;;;;29.70;20.00;;;;;;;13.84;44.98;101737.89;2327056;82;30863;-73
2021/10/10 03:16:41;;;;;;;29.10;19.57;;;;;;;13.81;44.84;101728.19;2349754;82;25670;-74
2021/10/10 03:20:07;;;;;;;29.40;19.57;;;;;;;13.80;45.04;101729.01;2316522;81;25662;-74
2021/10/10 03:23:28;;;;;;;31.97;20.52;;;;;;;13.78;45.02;101730.71;2327212;81;25792;-75
2021/10/10 03:26:49;;;;;;;30.77;20.00;;;;;;;13.76;45.08;101734.12;2274375;83;30987;-74
2021/10/10 03:30:10;;;;;;;30.57;19.07;;;;;;;13.74;45.09;101731.46;2321916;82;31532;-74
2021/10/10 03:33:31;;;;;;;32.05;19.12;;;;;;;13.73;45.16;101728.34;2330792;82;25748;-74
2021/10/10 03:36:52;;;;;;;27.58;19.02;;;;;;;13.72;45.20;101725.69;2354390;82;30344;-73
2021/10/10 03:40:13;;;;;;;31.75;20.32;;;;;;;13.69;45.17;101727.78;2284409;83;31086;-73
2021/10/10 03:43:34;;;;;;;28.32;19.25;;;;;;;13.67;45.19;101725.13;2288143;84;30713;-73
2021/10/10 03:46:55;;;;;;;27.55;19.05;;;;;;;13.65;45.23;101718.05;2350537;81;25761;-73
2021/10/10 03:50:17;;;;;;;29.55;19.73;;;;;;;13.62;45.27;101716.22;2292478;84;30852;-76
2021/10/10 03:57:09;;;;;;;26.62;17.92;;;;;;;13.60;45.29;101710.45;2233926;86;25885;-74
2021/10/10 04:00:32;;;;;;;24.90;17.67;;;;;;;13.57;45.34;101706.02;2234511;86;30952;-73
2021/10/10 04:03:53;;;;;;;26.07;17.27;;;;;;;13.56;45.42;101704.64;2236546;87;26189;-72
2021/10/10 04:07:15;;;;;;;26.48;18.67;;;;;;;13.52;45.42;101699.72;2233342;86;31039;-72
2021/10/10 04:10:36;;;;;;;28.00;18.27;;;;;;;13.52;45.58;101701.45;2226410;86;25924;-72
2021/10/10 04:13:57;;;;;;;26.02;19.00;;;;;;;13.49;45.47;101700.93;2180565;89;31057;-73
2021/10/10 04:17:18;;;;;;;28.10;18.57;;;;;;;13.48;45.50;101706.14;2196482;88;34801;-73
2021/10/10 04:20:38;;;;;;;27.30;17.62;;;;;;;13.46;45.49;101703.05;2240255;86;26186;-74
2021/10/10 04:23:59;;;;;;;22.48;17.60;;;;;;;13.45;45.52;101702.98;2184548;88;25932;-74
2021/10/10 04:27:20;;;;;;;30.80;18.47;;;;;;;13.43;45.55;101703.34;2148252;89;25698;-73
2021/10/10 04:30:41;;;;;;;31.47;18.13;;;;;;;13.40;45.54;101704.58;2181252;88;35483;-73
2021/10/10 04:34:02;;;;;;;26.47;17.83;;;;;;;13.37;45.57;101692.69;2215035;86;25744;-73
2021/10/10 04:37:23;;;;;;;28.97;17.83;;;;;;;13.36;45.58;101701.36;2292494;84;25634;-74
2021/10/10 04:40:44;;;;;;;28.90;18.37;;;;;;;13.34;45.66;101703.06;2348787;82;25863;-73
2021/10/10 04:44:05;;;;;;;29.53;17.30;;;;;;;13.31;45.65;101698.60;2268568;85;25699;-73
2021/10/10 04:47:26;;;;;;;23.22;16.70;;;;;;;13.29;45.69;101696.34;2256715;85;25758;-74
2021/10/10 04:50:47;;;;;;;23.83;18.02;;;;;;;13.28;45.69;101701.11;2263531;85;25838;-74
2021/10/10 04:54:08;;;;;;;25.65;17.12;;;;;;;13.27;45.71;101695.41;2294601;83;25643;-74
2021/10/10 04:57:28;;;;;;;29.70;18.75;;;;;;;13.25;45.74;101697.08;2291015;84;25718;-74
2021/10/10 05:00:49;;;;;;;26.33;17.20;;;;;;;13.23;45.75;101693.08;2284381;83;25817;-73
2021/10/10 05:04:10;;;;;;;25.72;16.70;;;;;;;13.22;45.78;101694.32;2291538;84;25622;-73
2021/10/10 05:07:31;;;;;;;22.30;16.73;;;;;;;13.22;45.84;101700.87;2284850;83;25778;-72
2021/10/10 05:10:53;;;;;;;32.53;17.97;;;;;;;13.20;45.82;101692.97;2344177;82;25668;-73
2021/10/10 05:14:15;;;;;;;23.80;16.77;;;;;;;13.20;45.84;101690.78;2340827;81;25583;-74
2021/10/10 05:17:36;;;;;;;28.00;17.48;;;;;;;13.21;45.85;101691.23;2344825;82;25366;-73
2021/10/10 05:20:57;;;;;;;28.10;18.00;;;;;;;13.22;45.86;101696.52;2289886;84;25679;-73
2021/10/10 05:24:18;;;;;;;23.98;16.87;;;;;;;13.24;45.85;101695.31;2284804;83;25677;-73
2021/10/10 05:27:39;;;;;;;24.07;16.65;;;;;;;13.23;45.82;101690.88;2339135;82;31710;-74
2021/10/10 05:31:01;;;;;;;23.45;16.67;;;;;;;13.25;45.85;101691.84;2349848;82;25680;-74
2021/10/10 05:34:22;;;;;;;22.45;16.20;;;;;;;13.27;45.84;101691.91;2286292;83;25504;-74
2021/10/10 05:37:42;;;;;;;24.45;15.65;;;;;;;13.28;45.84;101695.88;2226126;86;25617;-73
2021/10/10 05:41:05;;;;;;;22.40;16.23;;;;;;;13.32;45.93;101688.58;2286838;82;31437;-74
2021/10/10 05:44:26;;;;;;;21.07;16.60;;;;;;;13.32;45.93;101688.58;2336765;81;25306;-75
2021/10/10 05:47:47;;;;;;;23.02;16.05;;;;;;;13.33;45.89;101688.16;2326550;81;29895;-74
2021/10/10 05:51:08;;;;;;;23.22;15.93;;;;;;;13.36;45.84;101690.45;2332366;81;25585;-74
2021/10/10 05:54:31;;;;;;;21.23;16.00;;;;;;;13.39;45.89;101685.75;2269097;85;25871;-73
2021/10/10 05:57:52;;;;;;;20.12;14.13;;;;;;;13.41;45.89;101686.70;2287362;83;25927;-73
2021/10/10 06:01:13;;;;;;;22.37;14.87;;;;;;;13.45;45.94;101689.88;2288036;83;25710;-76
2021/10/10 06:04:33;;;;;;;19.98;14.80;;;;;;;13.48;45.90;101690.41;2293925;83;30891;-73
2021/10/10 06:07:55;;;;;;;18.77;14.20;;;;;;;13.51;45.89;101694.45;2287840;83;25751;-73
2021/10/10 06:11:20;;;;;;;21.80;13.55;;;;;;;13.56;45.88;101696.78;2288651;84;30891;-74
2021/10/10 06:14:42;;;;;;;18.73;13.75;;;;;;;13.60;45.85;101699.96;2295497;84;25716;-74
2021/10/10 06:18:04;;;;;;;16.35;12.60;;;;;;;13.62;45.82;101693.94;2345175;82;25358;-74
2021/10/10 06:21:25;;;;;;;17.73;13.10;;;;;;;13.67;45.80;101701.97;2345196;81;25391;-75
2021/10/10 06:24:46;;;;;;;18.95;11.95;;;;;;;13.70;45.76;101693.78;2349267;81;31616;-76
2021/10/10 06:28:06;;;;;;;15.65;11.30;;;;;;;13.75;45.70;101691.30;2353112;82;30901;-76
2021/10/10 06:31:27;;;;;;;15.25;11.33;;;;;;;13.79;45.70;101691.85;2289461;83;30913;-76
2021/10/10 06:34:48;;;;;;;15.15;11.18;;;;;;;13.84;45.70;101690.70;2349296;81;32134;-76
2021/10/10 06:38:09;;;;;;;12.37;9.98;;;;;;;13.87;45.67;101697.33;2285104;83;30946;-76
2021/10/10 06:41:30;;;;;;;13.55;11.12;;;;;;;13.93;45.76;101698.83;2281130;85;31097;-74
2021/10/10 06:44:52;;;;;;;13.95;9.60;;;;;;;13.99;45.68;101695.52;2258409;85;25708;-75
2021/10/10 06:48:12;;;;;;;13.20;9.65;;;;;;;14.03;45.75;101693.45;2257714;84;25622;-74
2021/10/10 06:51:37;;;;;;;12.30;9.63;;;;;;;14.08;45.64;101692.76;2263298;84;30888;-73
2021/10/10 06:54:58;;;;;;;13.38;10.35;;;;;;;14.14;45.67;101687.70;2260328;84;25659;-73
2021/10/10 06:58:21;;;;;;;12.03;9.75;;;;;;;14.20;45.73;101686.09;2261399;84;30912;-73
2021/10/10 07:01:42;;;;;;;13.62;9.33;;;;;;;14.27;45.67;101691.55;2261952;84;25824;-72
2021/10/10 07:05:04;;;;;;;16.77;8.65;;;;;;;14.34;45.71;101694.86;2264464;84;25658;-75
2021/10/10 07:08:25;;;;;;;11.88;9.68;;;;;;;14.41;45.67;101695.92;2258887;84;26328;-74
2021/10/10 07:11:49;;;;;;;9.85;8.55;;;;;;;14.48;45.59;101687.37;2263254;84;25756;-73
2021/10/10 07:15:13;;;;;;;11.35;8.35;;;;;;;14.55;45.63;101688.05;2266116;84;25790;-73
2021/10/10 07:18:47;;;;;;;11.38;7.97;;;;;;;14.64;45.47;101665.97;2269835;84;25793;-74
2021/10/10 07:25:48;;;;;;;10.88;8.73;;;;;;;14.81;45.48;101686.55;2268291;84;25694;-74
2021/10/10 07:29:08;;;;;;;11.15;8.68;;;;;;;15.12;45.35;101686.95;2257644;84;26302;-73
2021/10/10 07:32:32;;;;;;;8.38;7.58;;;;;;;17.83;44.32;101671.45;2287850;83;30943;-73
2021/10/10 07:35:52;;;;;;;8.93;7.97;;;;;;;17.83;44.32;101671.45;2257609;84;25839;-76
2021/10/10 07:39:13;;;;;;;8.85;7.17;;;;;;;21.23;40.58;101693.94;2274860;84;25847;-73
2021/10/10 07:42:34;;;;;;;8.70;7.37;;;;;;;23.96;37.24;101698.41;2293222;84;25782;-74
2021/10/10 07:46:05;;;;;;;7.53;6.83;;;;;;;26.25;34.44;101708.70;2332615;82;25839;-75
2021/10/10 07:49:18;;;;;;;7.92;7.22;;;;;;;28.37;31.85;101715.59;2325469;81;25703;-75
2021/10/10 07:52:39;;;;;;;7.67;6.97;;;;;;;30.26;29.67;101725.09;2325773;82;25659;-75
2021/10/10 07:56:03;;;;;;;7.62;6.97;;;;;;;31.88;27.79;101739.24;2336103;81;26352;-74
2021/10/10 07:59:24;;;;;;;6.97;6.28;;;;;;;33.27;26.50;101741.30;2347670;81;25900;-75
2021/10/10 08:02:54;;;;;;;6.53;6.05;;;;;;;34.48;25.20;101748.51;2342223;81;25764;-74
2021/10/10 08:06:15;;;;;;;6.62;6.08;;;;;;;35.61;24.24;101746.62;2351289;82;25809;-74
2021/10/10 08:09:36;;;;;;;5.75;5.35;;;;;;;36.80;23.12;101743.70;2337522;82;25890;-75
2021/10/10 08:12:57;;;;;;;7.50;5.22;;;;;;;37.80;22.24;101755.09;2329595;82;25779;-74
2021/10/10 08:16:18;;;;;;;5.42;4.85;;;;;;;38.69;21.59;101751.98;2332870;82;25953;-74
2021/10/10 08:19:39;;;;;;;6.35;5.37;;;;;;;39.54;20.89;101753.36;2342666;82;25710;-75
2021/10/10 08:23:02;;;;;;;4.58;4.28;;;;;;;40.35;20.40;101751.06;2329110;82;25867;-75
2021/10/10 08:26:23;;;;;;;4.70;4.35;;;;;;;41.08;19.90;101753.75;2351576;82;25813;-76
2021/10/10 08:29:44;;;;;;;4.53;4.22;;;;;;;41.71;19.54;101751.97;2336017;82;25725;-76
2021/10/10 08:33:05;;;;;;;4.50;4.05;;;;;;;42.31;19.11;101761.82;2344640;82;25839;-77
2021/10/10 08:36:26;;;;;;;5.55;4.05;;;;;;;42.87;18.94;101761.32;2353835;81;25811;-76
2021/10/10 08:39:46;;;;;;;4.10;3.80;;;;;;;43.40;18.55;101758.70;2341664;82;25748;-81
2021/10/10 08:43:13;;;;;;;4.30;4.00;;;;;;;43.81;18.27;101753.90;2331455;82;25604;-78
2021/10/10 08:46:38;;;;;;;4.92;3.75;;;;;;;44.15;18.17;101750.65;2357071;82;25738;-80
2021/10/10 08:50:00;;;;;;;5.85;4.97;;;;;;;44.45;17.93;101751.80;2337031;82;26370;-79
2021/10/10 08:53:25;;;;;;;8.13;4.37;;;;;;;43.65;12.87;101747.67;2341862;82;25825;-80
2021/10/10 08:56:46;;;;;;;6.92;5.47;;;;;;;42.26;12.31;101741.27;2330365;82;26360;-78
2021/10/10 09:00:21;;;;;;;5.72;5.08;;;;;;;41.61;11.99;101730.50;2316524;83;25797;-79
2021/10/10 09:03:38;;;;;;;6.80;4.95;;;;;;;41.04;11.57;101727.16;2326462;81;25833;-79
2021/10/10 09:06:59;;;;;;;10.50;5.00;;;;;;;40.65;11.80;101722.25;2332371;81;25588;-79
2021/10/10 09:10:27;;;;;;;6.45;5.33;;;;;;;40.63;11.49;101725.09;2320335;81;25805;-80
2021/10/10 09:13:58;;;;;;;7.25;4.92;;;;;;;40.04;11.39;101717.13;2320842;81;26362;-80
2021/10/10 09:17:23;;;;;;;7.67;5.33;;;;;;;39.92;11.64;101718.09;2341573;81;25670;-79
2021/10/10 09:20:46;;;;;;;;;;;;;;;39.76;11.29;101718.44;2319660;82;25905;-79
2021/10/10 09:24:07;;;;;;;5.85;5.03;;;;;;;39.41;11.41;101707.03;2344013;81;25561;-80
2021/10/10 09:27:28;;;;;;;6.43;4.50;;;;;;;39.23;11.88;101703.84;2349223;81;25380;-79
2021/10/10 09:30:54;;;;;;;7.75;4.42;;;;;;;39.24;11.82;101705.58;2333768;81;25999;-80
2021/10/10 09:34:23;;;;;;;7.58;4.47;;;;;;;39.08;11.80;101700.41;2365763;81;25649;-81
2021/10/10 09:37:47;;;;;;;5.55;4.17;;;;;;;39.13;11.81;101699.58;2328108;82;25769;-76
2021/10/10 09:41:16;;;;;;;5.53;4.17;;;;;;;39.34;11.72;101694.36;2321673;82;25709;-77
2021/10/10 09:44:48;;;;;;;7.62;4.28;;;;;;;39.35;11.72;101691.99;2315220;82;25798;-77
2021/10/10 09:48:08;;;;;;;7.03;3.58;;;;;;;39.47;11.62;101690.69;2319339;83;25882;-77
2021/10/10 09:51:33;;;;;;;5.87;2.80;;;;;;;39.39;10.97;101693.52;2330501;82;25809;-76
2021/10/10 09:54:59;;;;;;;7.85;3.52;;;;;;;39.16;11.14;101688.44;2341564;82;25705;-77
2021/10/10 09:58:42;;;;;;;7.45;3.67;;;;;;;38.80;10.42;101684.39;2311072;83;25278;-77
2021/10/10 10:02:03;;;;;;;3.52;3.22;;;;;;;38.44;10.82;101689.75;2244265;84;25955;-77
2021/10/10 10:05:27;;;;;;;5.20;3.30;;;;;;;37.59;10.59;101679.01;2283982;84;25913;-78
2021/10/10 10:08:49;;;;;;;4.35;2.75;;;;;;;37.54;11.08;101674.39;2263603;83;25762;-76
2021/10/10 10:12:09;;;;;;;2.90;2.70;;;;;;;37.38;11.18;101670.47;2270865;85;25754;-77
2021/10/10 10:15:34;;;;;;;5.05;2.45;;;;;;;37.55;11.43;101668.83;2327909;81;25867;-76
2021/10/10 10:18:58;;;;;;;7.95;3.30;;;;;;;37.84;11.74;101663.69;2344060;81;25898;-76
2021/10/10 10:22:21;;;;;;;4.62;3.08;;;;;;;37.92;11.61;101663.53;2334555;82;25864;-77
2021/10/10 10:25:42;;;;;;;10.93;3.50;;;;;;;37.75;11.04;101660.63;2329805;82;25603;-77
2021/10/10 10:29:23;;;;;;;4.45;2.65;;;;;;;37.44;11.35;101653.75;2344494;81;25923;-78
2021/10/10 10:32:44;;;;;;;5.60;2.22;;;;;;;37.07;10.70;101644.52;2271312;84;26177;-75
2021/10/10 10:36:05;;;;;;;4.35;2.08;;;;;;;35.83;11.09;101648.47;2323110;81;25888;-76
2021/10/10 10:39:50;;;;;;;4.27;2.30;;;;;;;35.42;11.56;101643.74;2309733;83;25765;-76
2021/10/10 10:43:13;;;;;;;3.85;1.87;;;;;;;34.72;11.62;101641.51;2317024;82;25688;-75
2021/10/10 10:46:40;;;;;;;8.48;2.20;;;;;;;33.95;11.87;101638.60;2296437;82;25928;-76
2021/10/10 10:50:04;;;;;;;3.47;1.90;;;;;;;33.31;12.14;101635.67;2251061;84;25231;-74
2021/10/10 10:53:25;;;;;;;3.33;1.70;;;;;;;32.76;12.68;101630.31;2345601;81;26181;-73
2021/10/10 10:56:48;;;;;;;2.98;1.72;;;;;;;32.69;13.15;101627.04;2325852;81;25249;-73
2021/10/10 11:00:16;;;;;;;5.90;2.05;;;;;;;32.70;12.91;101621.16;2329090;81;25695;-74
2021/10/10 11:03:37;;;;;;;2.00;1.90;;;;;;;32.35;12.33;101622.86;2339126;81;25862;-75
2021/10/10 11:07:04;;;;;;;4.47;2.45;;;;;;;31.12;12.93;101610.84;2347610;82;25799;-74
2021/10/10 11:10:27;;;;;;;2.87;2.42;;;;;;;31.24;13.47;101611.64;2296209;83;25837;-74
2021/10/10 11:14:02;;;;;;;5.60;2.17;;;;;;;31.51;13.45;101612.77;2320449;82;25755;-74
2021/10/10 11:17:23;;;;;;;3.60;2.33;;;;;;;31.46;13.71;101605.37;2353146;81;26457;-74
2021/10/10 11:20:58;;;;;;;4.42;2.12;;;;;;;31.88;13.68;101607.95;2340703;80;26099;-74
2021/10/10 11:24:19;;;;;;;6.20;2.30;;;;;;;31.95;13.33;101601.80;2345539;80;26367;-73
2021/10/10 11:27:41;;;;;;;3.85;2.58;;;;;;;31.64;13.30;101591.53;2336717;81;25451;-73
2021/10/10 11:31:10;;;;;;;6.62;2.45;;;;;;;31.59;13.18;101600.28;2348824;81;25696;-73
2021/10/10 11:34:31;;;;;;;4.12;2.58;;;;;;;31.48;13.36;101585.47;2339687;81;25935;-73
2021/10/10 11:38:10;;;;;;;3.55;3.15;;;;;;;31.43;13.27;101583.94;2331111;83;25651;-72
2021/10/10 11:41:31;;;;;;;5.58;2.55;;;;;;;31.12;13.64;101571.79;2343972;82;25727;-73
2021/10/10 11:44:52;;;;;;;2.92;2.62;;;;;;;31.33;13.27;101569.13;2350332;82;25729;-73
2021/10/10 11:48:13;;;;;;;5.25;2.62;;;;;;;30.71;13.74;101563.62;2336876;82;25417;-74
2021/10/10 11:51:36;;;;;;;4.40;2.75;;;;;;;30.77;13.82;101562.50;2340867;81;25607;-72
2021/10/10 11:58:40;;;;;;;4.35;2.50;;;;;;;30.84;14.32;101553.70;2358820;81;44855;-72
2021/10/10 12:02:02;;;;;;;4.70;2.63;;;;;;;30.49;13.76;101547.95;2356020;82;25726;-71
2021/10/10 12:05:25;;;;;;;6.10;2.60;;;;;;;30.08;14.22;101547.30;2351799;81;25667;-73
2021/10/10 12:08:47;;;;;;;4.30;2.37;;;;;;;29.98;14.16;101537.84;2346471;81;25818;-71
2021/10/10 12:12:09;;;;;;;2.52;2.33;;;;;;;29.88;14.46;101533.76;2344356;81;25617;-72
2021/10/10 12:15:31;;;;;;;4.40;2.50;;;;;;;30.03;14.69;101524.20;2364442;81;25888;-72
2021/10/10 12:18:57;;;;;;;4.37;2.30;;;;;;;30.22;15.00;101519.88;2357114;81;25746;-72
2021/10/10 12:22:18;;;;;;;6.60;2.52;;;;;;;30.31;14.50;101527.59;2354999;81;25616;-71
2021/10/10 12:25:44;;;;;;;5.95;2.45;;;;;;;29.86;14.44;101526.20;2342270;81;26275;-71
2021/10/10 12:29:23;;;;;;;3.85;2.15;;;;;;;29.44;14.47;101517.47;2357666;81;25665;-71
2021/10/10 12:32:44;;;;;;;3.00;2.45;;;;;;;29.41;14.90;101504.15;2361140;81;25212;-72
2021/10/10 12:36:16;;;;;;;10.80;2.75;;;;;;;29.52;15.23;101503.74;2332420;81;25632;-72
2021/10/10 12:39:41;;;;;;;2.92;2.10;;;;;;;29.75;15.02;101501.56;2366342;82;25629;-71
2021/10/10 12:43:03;;;;;;;2.30;1.82;;;;;;;29.36;14.62;101503.43;2348258;82;25739;-72
2021/10/10 12:46:26;;;;;;;5.72;2.25;;;;;;;28.78;14.60;101508.16;2336720;81;25732;-72
2021/10/10 12:49:53;;;;;;;6.62;1.92;;;;;;;27.89;15.14;101489.12;2333633;82;25660;-71
2021/10/10 12:53:31;;;;;;;2.47;1.98;;;;;;;27.62;15.29;101489.46;2342404;81;25761;-72
2021/10/10 12:57:17;;;;;;;4.43;1.93;;;;;;;27.27;16.00;101482.44;2337274;83;25668;-74
2021/10/10 13:00:40;;;;;;;3.22;1.85;;;;;;;27.34;15.82;101488.06;2332524;81;25719;-71
2021/10/10 13:04:03;;;;;;;3.35;1.90;;;;;;;26.89;15.94;101472.30;2337434;82;26380;-72
2021/10/10 13:07:23;;;;;;;3.95;2.30;;;;;;;26.60;16.42;101477.97;2364784;82;25682;-71
2021/10/10 13:10:44;;;;;;;2.75;2.02;;;;;;;26.27;16.51;101471.63;2328610;82;25813;-72
2021/10/10 13:14:06;;;;;;;4.50;1.90;;;;;;;26.17;16.46;101467.41;2332064;83;25711;-72
2021/10/10 13:17:27;;;;;;;4.03;2.00;;;;;;;25.81;16.76;101457.98;2352820;81;25660;-71
2021/10/10 13:20:48;;;;;;;3.83;1.70;;;;;;;25.77;17.07;101452.73;2343579;81;25665;-72
2021/10/10 13:24:09;;;;;;;1.87;1.77;;;;;;;26.07;17.65;101453.85;2359016;81;25834;-71
2021/10/10 13:27:30;;;;;;;4.67;1.80;;;;;;;26.35;17.75;101457.59;2342769;81;25699;-71
2021/10/10 13:30:55;;;;;;;2.45;2.00;;;;;;;26.68;18.00;101451.47;2360198;82;25733;-72
2021/10/10 13:34:14;;;;;;;2.85;2.40;;;;;;;26.81;17.65;101449.77;2359070;81;25793;-71
2021/10/10 13:37:35;;;;;;;4.83;2.30;;;;;;;26.71;17.38;101445.58;2345696;82;25747;-71
2021/10/10 13:40:57;;;;;;;6.55;2.35;;;;;;;26.98;17.48;101436.39;2350875;81;25503;-73
2021/10/10 13:44:19;;;;;;;3.52;2.10;;;;;;;27.26;17.61;101434.70;2346232;81;26102;-71
2021/10/10 13:47:40;;;;;;;10.28;2.90;;;;;;;27.19;17.67;101429.58;2357693;81;25682;-73
2021/10/10 13:51:04;;;;;;;4.42;2.92;;;;;;;27.16;17.69;101428.33;2335171;81;25203;-71
2021/10/10 13:54:25;;;;;;;3.15;2.27;;;;;;;26.82;16.96;101432.78;2354102;81;25855;-72
2021/10/10 13:57:46;;;;;;;6.25;3.22;;;;;;;25.93;17.47;101421.23;2342567;81;25624;-72
2021/10/10 14:01:09;;;;;;;2.45;1.82;;;;;;;25.69;17.84;101430.20;2333380;81;25631;-72
2021/10/10 14:04:30;;;;;;;5.55;2.00;;;;;;;25.31;17.55;101425.24;2354229;81;25779;-72
2021/10/10 14:07:51;;;;;;;4.72;2.25;;;;;;;24.30;17.74;101421.74;2353950;80;25565;-71
2021/10/10 14:11:13;;;;;;;4.40;2.37;;;;;;;23.55;18.28;101416.16;2359756;81;25546;-70
2021/10/10 14:14:34;;;;;;;4.60;2.02;;;;;;;23.04;18.49;101411.48;2373812;81;25670;-72
2021/10/10 14:18:18;;;;;;;2.62;2.33;;;;;;;22.39;18.93;101408.56;2350619;81;26175;-75
2021/10/10 14:21:29;;;;;;;4.53;2.05;;;;;;;22.11;19.53;101405.69;2349951;81;26320;-82
2021/10/10 14:24:50;;;;;;;10.85;5.05;;;;;;;21.92;19.82;101402.27;2362002;81;26447;-73
2021/10/10 14:28:12;;;;;;;5.30;3.35;;;;;;;21.79;20.29;101399.26;2351299;82;25720;-76
2021/10/10 14:31:35;;;;;;;5.58;3.30;;;;;;;21.65;20.60;101404.66;2349143;82;26340;-73
2021/10/10 14:34:56;;;;;;;6.37;2.92;;;;;;;21.55;20.95;101401.16;2333732;82;25819;-71
2021/10/10 14:38:18;;;;;;;7.50;3.02;;;;;;;21.35;21.10;101392.43;2345464;82;25656;-72
2021/10/10 14:41:44;;;;;;;4.65;3.77;;;;;;;21.23;21.20;101393.34;2350487;81;25796;-72
2021/10/10 14:45:08;;;;;;;11.95;2.20;;;;;;;20.99;21.30;101381.03;2374190;82;25736;-71
2021/10/10 14:48:27;;;;;;;2.10;1.90;;;;;;;20.84;21.50;101381.09;2364136;82;25671;-71
2021/10/10 14:51:48;;;;;;;3.70;1.90;;;;;;;20.52;21.60;101386.03;2364868;81;25752;-79
2021/10/10 14:55:11;;;;;;;9.18;2.00;;;;;;;20.25;21.69;101384.26;2376691;81;25741;-74
2021/10/10 14:58:33;;;;;;;3.47;2.02;;;;;;;20.04;21.85;101387.75;2341780;82;25693;-72
2021/10/10 15:01:54;;;;;;;7.78;2.60;;;;;;;19.78;22.16;101374.08;2333919;82;25677;-72
2021/10/10 15:05:15;;;;;;;3.75;1.60;;;;;;;19.67;22.37;101373.59;2330809;81;25720;-72
2021/10/10 15:08:36;;;;;;;3.92;2.22;;;;;;;19.50;22.58;101377.48;2337502;82;25570;-73
2021/10/10 15:11:56;;;;;;;2.33;2.05;;;;;;;19.33;22.91;101369.05;2338770;82;25891;-71
2021/10/10 15:15:17;;;;;;;3.75;2.40;;;;;;;19.31;23.10;101367.31;2292806;82;26433;-71
2021/10/10 15:18:38;;;;;;;4.67;2.50;;;;;;;19.24;23.40;101362.44;2323612;81;25706;-73
2021/10/10 15:22:03;;;;;;;4.05;2.42;;;;;;;19.02;23.67;101355.28;2317460;81;25683;-72
2021/10/10 15:25:22;;;;;;;7.95;2.37;;;;;;;18.94;23.96;101356.58;2332473;82;25804;-71
2021/10/10 15:28:43;;;;;;;5.05;2.62;;;;;;;18.80;24.26;101347.27;2336858;82;25737;-72
2021/10/10 15:32:05;;;;;;;9.50;2.12;;;;;;;18.73;24.57;101348.52;2345992;82;26173;-71
2021/10/10 15:35:26;;;;;;;7.25;2.75;;;;;;;18.70;24.73;101344.55;2342825;82;25713;-72
2021/10/10 15:38:47;;;;;;;3.98;2.00;;;;;;;18.57;24.70;101348.42;2338035;82;25772;-72
2021/10/10 15:42:08;;;;;;;7.90;2.33;;;;;;;18.45;24.87;101347.01;2349061;81;27110;-72